Time;durP1;ratioP1;P1;durP2;ratioP2;P2;SDS_P1;SDS_P2;PMS_P1;PMS_P2;Temp;Humidity;BMP_temperature;BMP_pressure;BME280_temperature;BME280_humidity;BME280_pressure;Samples;Min_cycle;Max_cycle;Signal;HPM_P1;HPM_P2
2023/02/28 00:03:00;;;;;;;31.40;17.40;;;;;;;-1.54;69.25;101255.30;218496;1257;140114;-61
2023/02/28 00:08:03;;;;;;;35.90;17.70;;;;;;;-1.59;69.41;101259.52;219281;1259;140492;-62
2023/02/28 00:13:06;;;;;;;38.10;18.70;;;;;;;-1.64;69.25;101260.62;217462;1256;212418;-65
2023/02/28 00:18:08;;;;;;;37.40;20.50;;;;;;;-1.67;69.22;101260.69;218599;1256;140378;-62
2023/02/28 00:23:11;;;;;;;38.40;20.20;;;;;;;-1.72;69.44;101259.23;217893;1256;140153;-62
2023/02/28 00:28:14;;;;;;;45.50;19.70;;;;;;;-1.76;69.19;101261.64;218370;1256;139669;-62
2023/02/28 00:33:16;;;;;;;29.70;19.30;;;;;;;-1.84;68.99;101262.98;218423;1256;140220;-66
2023/02/28 00:38:19;;;;;;;37.50;20.80;;;;;;;-1.92;69.06;101262.21;217757;1257;139522;-66
2023/02/28 00:43:22;;;;;;;29.90;17.20;;;;;;;-2.01;68.95;101261.36;217973;1256;139735;-67
2023/02/28 00:48:26;;;;;;;26.70;14.50;;;;;;;-2.10;69.02;101264.59;218699;1256;140449;-66
2023/02/28 00:53:29;;;;;;;23.80;13.30;;;;;;;-2.19;69.13;101270.55;218303;1257;140570;-67
2023/02/28 00:58:33;;;;;;;21.60;12.10;;;;;;;-2.30;68.92;101274.02;218629;1260;140076;-67
2023/02/28 01:03:38;;;;;;;15.80;9.80;;;;;;;-2.41;68.83;101273.97;218745;1256;140418;-67
2023/02/28 01:08:41;;;;;;;19.00;9.70;;;;;;;-2.56;68.83;101274.21;218946;1256;140107;-67
2023/02/28 01:13:46;;;;;;;13.70;10.40;;;;;;;-2.66;69.05;101277.22;219867;1256;141753;-67
2023/02/28 01:18:48;;;;;;;24.30;12.10;;;;;;;-2.74;69.23;101274.42;220289;1256;141226;-66
2023/02/28 01:23:51;;;;;;;21.30;10.40;;;;;;;-2.75;69.47;101274.90;220194;1256;141196;-67
2023/02/28 01:28:54;;;;;;;20.90;10.70;;;;;;;-2.71;69.64;101270.78;219796;1256;140654;-66
2023/02/28 01:33:57;;;;;;;19.70;12.40;;;;;;;-2.66;69.74;101274.23;220406;1256;139804;-66
2023/02/28 01:39:00;;;;;;;19.70;11.70;;;;;;;-2.66;69.69;101272.83;218775;1256;139782;-65
2023/02/28 01:44:26;;;;;;;23.00;11.10;;;;;;;-2.76;69.79;101270.25;218016;1257;140096;-64
2023/02/28 01:49:30;;;;;;;25.30;12.30;;;;;;;-2.85;70.00;101268.02;218505;1257;139581;-63
2023/02/28 01:54:34;;;;;;;21.90;10.90;;;;;;;-2.96;70.30;101266.54;218326;1257;140185;-62
2023/02/28 02:00:08;;;;;;;27.50;11.70;;;;;;;-3.15;70.41;101269.10;218604;1256;140725;-63
2023/02/28 02:05:18;;;;;;;25.80;12.60;;;;;;;-3.25;70.77;101266.36;218442;1257;141475;-64
2023/02/28 02:10:32;;;;;;;20.90;12.10;;;;;;;-3.30;70.96;101265.33;218395;1256;140207;-66
2023/02/28 02:16:12;;;;;;;19.10;10.70;;;;;;;-3.32;70.92;101262.34;218102;1256;140145;-67
2023/02/28 02:21:35;;;;;;;26.90;11.70;;;;;;;-3.31;71.07;101263.09;218088;1256;141716;-66
2023/02/28 02:27:06;;;;;;;18.80;12.60;;;;;;;-3.33;71.15;101262.20;218975;1256;140119;-64
2023/02/28 02:32:37;;;;;;;24.80;15.00;;;;;;;-3.42;71.04;101263.23;217953;1257;139660;-65
2023/02/28 02:37:52;;;;;;;20.50;10.40;;;;;;;-3.58;71.42;101263.65;218315;1259;140379;-63
2023/02/28 02:43:20;;;;;;;20.70;11.00;;;;;;;-3.68;71.55;101260.70;217803;1256;139732;-66
2023/02/28 02:48:32;;;;;;;16.70;10.30;;;;;;;-3.76;71.65;101258.95;219228;1256;140718;-66
2023/02/28 02:53:43;;;;;;;20.60;10.00;;;;;;;-3.79;71.55;101263.19;217549;1260;141559;-66
2023/02/28 02:58:49;;;;;;;17.20;11.10;;;;;;;-3.81;71.58;101265.73;218804;1256;141441;-66
2023/02/28 03:03:53;;;;;;;27.60;13.50;;;;;;;-3.86;71.75;101262.45;218308;1259;139768;-66
2023/02/28 03:08:56;;;;;;;20.90;12.50;;;;;;;-3.94;71.76;101262.49;218340;1256;139802;-67
2023/02/28 03:14:26;;;;;;;22.50;11.80;;;;;;;-4.06;71.87;101264.84;218849;1256;140231;-67
2023/02/28 03:20:07;;;;;;;18.50;9.90;;;;;;;-4.18;71.69;101267.19;219429;1257;139923;-66
2023/02/28 03:25:39;;;;;;;21.50;9.90;;;;;;;-4.29;72.09;101272.33;220505;1256;139392;-67
2023/02/28 03:31:19;;;;;;;20.40;9.30;;;;;;;-4.36;72.08;101273.66;220005;1256;141050;-67
2023/02/28 03:36:30;;;;;;;18.20;9.50;;;;;;;-4.43;72.29;101274.95;219280;1256;140906;-65
2023/02/28 03:41:40;;;;;;;19.00;9.70;;;;;;;-4.44;72.14;101280.73;218792;1259;140535;-66
2023/02/28 03:46:51;;;;;;;24.80;12.00;;;;;;;-4.43;72.28;101280.14;218627;1256;140635;-65
2023/02/28 03:51:57;;;;;;;21.50;11.10;;;;;;;-4.41;72.63;101282.50;218673;1256;140689;-66
2023/02/28 03:57:07;;;;;;;14.00;9.40;;;;;;;-4.45;72.93;101295.77;219175;1256;141568;-66
2023/02/28 04:02:11;;;;;;;16.40;9.60;;;;;;;-4.54;72.91;101296.52;217963;1259;139425;-65
2023/02/28 04:07:14;;;;;;;16.30;9.50;;;;;;;-4.63;72.93;101302.70;218669;1257;139700;-65
2023/02/28 04:12:17;;;;;;;11.80;7.80;;;;;;;-4.72;73.25;101300.83;217761;1256;139325;-64
2023/02/28 04:17:19;;;;;;;13.20;8.00;;;;;;;-4.81;73.15;101297.59;216942;1257;697370;-64
2023/02/28 04:22:26;;;;;;;14.00;10.70;;;;;;;-4.87;73.35;101293.48;218227;1257;139539;-64
2023/02/28 04:27:29;;;;;;;15.50;9.70;;;;;;;-4.89;73.63;101293.80;217663;1257;140639;-64
2023/02/28 04:32:35;;;;;;;17.70;10.10;;;;;;;-4.86;73.70;101297.16;218797;1260;140980;-65
2023/02/28 04:37:38;;;;;;;17.50;10.50;;;;;;;-4.81;74.00;101293.23;219234;1256;140764;-64
2023/02/28 04:42:41;;;;;;;13.30;9.50;;;;;;;-4.79;74.01;101295.86;218558;1256;139424;-65
2023/02/28 04:47:45;;;;;;;14.60;8.50;;;;;;;-4.78;74.04;101298.77;218930;1256;140778;-64
2023/02/28 04:52:49;;;;;;;17.80;10.20;;;;;;;-4.84;74.04;101295.15;217976;1257;140665;-64
2023/02/28 04:57:52;;;;;;;14.40;9.10;;;;;;;-4.93;74.16;101300.74;219012;1256;140271;-64
2023/02/28 05:02:55;;;;;;;21.50;11.30;;;;;;;-5.02;74.25;101301.02;219490;1256;141067;-65
2023/02/28 05:07:57;;;;;;;18.20;12.30;;;;;;;-5.09;74.35;101308.39;219468;1256;141214;-65
2023/02/28 05:13:00;;;;;;;16.40;9.20;;;;;;;-5.14;74.49;101313.86;219804;1256;140450;-65
2023/02/28 05:18:03;;;;;;;20.30;10.00;;;;;;;-5.14;74.34;101318.02;220196;1256;140268;-64
2023/02/28 05:23:06;;;;;;;19.10;11.60;;;;;;;-5.08;74.69;101316.98;218498;1256;140141;-64
2023/02/28 05:28:08;;;;;;;15.40;9.80;;;;;;;-5.13;74.42;101324.02;220224;1256;141070;-65
2023/02/28 05:33:11;;;;;;;21.50;11.10;;;;;;;-5.16;74.63;101322.64;220074;1256;141280;-65
2023/02/28 05:38:15;;;;;;;20.00;10.90;;;;;;;-5.16;74.72;101328.06;217361;1256;139803;-66
2023/02/28 05:43:17;;;;;;;18.40;8.80;;;;;;;-5.20;74.90;101329.02;219527;1256;140219;-67
2023/02/28 05:48:20;;;;;;;14.50;9.00;;;;;;;-5.21;75.18;101327.88;218046;1259;139521;-66
2023/02/28 05:53:23;;;;;;;18.40;10.80;;;;;;;-5.18;75.41;101327.80;217664;1257;140288;-65
2023/02/28 05:58:29;;;;;;;19.30;10.70;;;;;;;-5.12;75.27;101336.06;217720;1257;139871;-65
2023/02/28 06:03:32;;;;;;;16.00;9.90;;;;;;;-5.06;75.43;101336.08;217753;1256;141594;-64
2023/02/28 06:08:35;;;;;;;20.90;12.80;;;;;;;-4.98;75.34;101338.58;217914;1259;139807;-63
2023/02/28 06:13:37;;;;;;;16.70;10.40;;;;;;;-4.95;75.59;101343.23;218075;1257;139324;-63
2023/02/28 06:18:41;;;;;;;15.70;10.90;;;;;;;-4.90;75.79;101347.79;217684;1256;140182;-65
2023/02/28 06:23:47;;;;;;;17.80;9.40;;;;;;;-4.88;75.74;101355.20;219239;1256;140644;-63
2023/02/28 06:28:50;;;;;;;27.50;15.10;;;;;;;-4.81;76.05;101355.13;218763;1257;140607;-63
2023/02/28 06:33:56;;;;;;;27.80;14.20;;;;;;;-4.62;76.03;101364.37;217940;1257;139926;-63
2023/02/28 06:39:01;;;;;;;34.60;17.00;;;;;;;-4.39;76.14;101368.42;219991;1257;139729;-63
2023/02/28 06:44:15;;;;;;;41.10;19.20;;;;;;;-4.20;76.36;101375.36;219145;1257;139790;-65
2023/02/28 06:49:18;;;;;;;39.40;20.10;;;;;;;-4.00;76.43;101374.56;218419;1257;139698;-65
2023/02/28 06:54:21;;;;;;;34.00;17.50;;;;;;;-3.81;76.60;101377.08;217685;1256;139913;-64
2023/02/28 06:59:23;;;;;;;23.10;14.10;;;;;;;-3.63;76.50;101380.71;218268;1257;141043;-64
2023/02/28 07:04:26;;;;;;;33.80;17.60;;;;;;;-3.46;76.38;101384.65;218674;1257;140078;-65
2023/02/28 07:09:30;;;;;;;35.00;18.20;;;;;;;-3.27;76.36;101387.11;219340;1256;140661;-65
2023/02/28 07:14:33;;;;;;;33.60;18.40;;;;;;;-2.96;75.95;101386.73;220086;1256;140076;-65
2023/02/28 07:19:37;;;;;;;31.60;16.50;;;;;;;-2.41;75.79;101386.89;218415;1256;141822;-65
2023/02/28 07:24:42;;;;;;;31.60;18.70;;;;;;;-1.27;75.41;101389.14;218147;1257;217221;-65
2023/02/28 07:29:46;;;;;;;28.50;15.90;;;;;;;0.18;74.61;101382.17;220406;1256;141634;-69
2023/02/28 07:34:49;;;;;;;31.10;16.10;;;;;;;1.55;73.13;101386.10;220477;1256;139759;-68
2023/02/28 07:39:53;;;;;;;23.90;15.40;;;;;;;2.68;71.44;101385.42;218632;1257;139631;-70
2023/02/28 07:44:56;;;;;;;25.40;12.90;;;;;;;3.42;70.14;101380.41;219395;1257;140616;-67
2023/02/28 07:50:00;;;;;;;25.30;12.10;;;;;;;3.85;68.69;101376.39;219618;1257;140196;-71
2023/02/28 07:55:04;;;;;;;17.00;11.20;;;;;;;4.08;67.64;101375.50;218521;1257;140668;-71
2023/02/28 08:00:12;;;;;;;16.00;10.50;;;;;;;4.19;66.63;101375.46;217644;1257;139884;-70
2023/02/28 08:05:17;;;;;;;10.40;8.20;;;;;;;4.07;65.62;101381.40;218830;1256;141673;-72
2023/02/28 08:10:24;;;;;;;10.80;7.30;;;;;;;3.90;64.76;101377.33;217408;1256;139461;-69
2023/02/28 08:15:27;;;;;;;8.30;6.70;;;;;;;3.64;63.83;101379.30;217033;1257;139468;-71
2023/02/28 08:20:31;;;;;;;19.40;9.20;;;;;;;3.44;63.70;101378.67;218033;1257;140637;-69
2023/02/28 08:25:34;;;;;;;9.30;7.10;;;;;;;3.29;63.12;101382.89;217892;1256;139745;-68
2023/02/28 08:30:37;;;;;;;11.70;7.10;;;;;;;3.06;62.89;101381.80;217702;1257;140892;-69
2023/02/28 08:35:39;;;;;;;22.60;10.40;;;;;;;2.86;62.47;101378.98;218066;1257;141357;-68
2023/02/28 08:40:42;;;;;;;5.80;4.00;;;;;;;2.67;62.17;101384.61;217357;1260;139609;-68
2023/02/28 08:45:45;;;;;;;8.30;5.70;;;;;;;2.49;61.65;101381.38;218138;1256;139846;-67
2023/02/28 08:51:05;;;;;;;7.50;6.60;;;;;;;2.41;61.85;101372.55;219733;1257;140350;-68
2023/02/28 08:56:14;;;;;;;19.50;10.80;;;;;;;2.36;61.29;101369.15;217415;1257;141177;-68
2023/02/28 09:01:22;;;;;;;11.50;6.80;;;;;;;2.31;61.01;101375.11;218173;1256;141307;-69
2023/02/28 09:06:27;;;;;;;10.20;6.10;;;;;;;2.30;60.87;101377.13;217523;1257;140812;-67
2023/02/28 09:11:31;;;;;;;9.20;6.00;;;;;;;2.28;60.80;101378.73;217609;1257;139749;-67
2023/02/28 09:16:34;;;;;;;8.80;6.30;;;;;;;2.23;60.51;101379.41;220395;1256;139593;-65
2023/02/28 09:21:38;;;;;;;11.30;7.20;;;;;;;2.32;61.05;101381.20;220317;1257;141099;-66
2023/02/28 09:26:41;;;;;;;10.90;8.40;;;;;;;2.40;60.40;101372.63;220481;1256;139798;-66
2023/02/28 09:32:05;;;;;;;8.80;6.60;;;;;;;2.42;60.17;101372.42;220477;1257;141104;-65
2023/02/28 09:37:10;;;;;;;9.90;7.80;;;;;;;2.44;60.28;101368.73;220253;1256;139592;-67
2023/02/28 09:42:22;;;;;;;9.10;6.90;;;;;;;2.55;59.95;101362.58;218359;1257;139580;-66
2023/02/28 09:47:36;;;;;;;10.60;7.70;;;;;;;2.65;59.81;101362.70;218139;1257;139365;-66
2023/02/28 09:52:38;;;;;;;6.40;5.40;;;;;;;2.70;59.39;101358.75;218742;1257;140140;-66
2023/02/28 09:57:42;;;;;;;8.30;6.80;;;;;;;2.71;59.01;101352.65;217610;1257;140798;-66
2023/02/28 10:03:01;;;;;;;8.80;6.10;;;;;;;2.72;58.75;101349.57;218214;1257;140769;-68
2023/02/28 10:08:04;;;;;;;10.30;7.00;;;;;;;2.84;58.93;101350.02;217434;1257;139793;-66
2023/02/28 10:13:20;;;;;;;13.40;7.60;;;;;;;2.89;58.64;101356.22;217272;1257;233748;-66
2023/02/28 10:18:38;;;;;;;12.60;8.80;;;;;;;2.92;58.78;101356.41;217229;1261;139106;-67
2023/02/28 10:23:41;;;;;;;8.10;7.10;;;;;;;3.04;58.64;101357.18;217536;1258;139911;-75
2023/02/28 10:28:44;;;;;;;8.00;6.10;;;;;;;3.12;57.99;101360.15;217681;1257;141579;-68
2023/02/28 10:33:47;;;;;;;13.50;7.70;;;;;;;3.13;57.73;101360.40;217204;1257;139389;-72
2023/02/28 10:38:50;;;;;;;14.40;7.50;;;;;;;3.21;57.98;101361.52;219137;1257;153245;-67
2023/02/28 10:43:52;;;;;;;9.40;6.40;;;;;;;3.36;57.75;101353.06;217612;1261;139551;-66
2023/02/28 10:49:12;;;;;;;11.90;7.50;;;;;;;3.52;57.13;101354.88;217388;1256;139130;-66
2023/02/28 10:54:24;;;;;;;11.80;8.00;;;;;;;3.62;57.06;101351.39;218790;1260;139559;-68
2023/02/28 10:59:30;;;;;;;12.60;8.60;;;;;;;3.75;56.73;101351.40;219796;1260;139051;-68
2023/02/28 11:04:36;;;;;;;13.10;9.70;;;;;;;3.78;56.31;101347.73;220312;1257;139874;-71
2023/02/28 11:09:40;;;;;;;12.40;7.80;;;;;;;3.79;56.37;101349.20;220387;1258;141128;-70
2023/02/28 11:14:58;;;;;;;11.00;6.70;;;;;;;3.78;56.43;101350.77;220530;1257;140398;-73
2023/02/28 11:20:22;;;;;;;9.90;6.20;;;;;;;3.77;56.24;101341.72;220213;1257;139705;-70
2023/02/28 11:25:37;;;;;;;8.90;6.50;;;;;;;3.82;56.20;101337.29;220302;1256;140126;-70
2023/02/28 11:30:42;;;;;;;8.60;6.40;;;;;;;3.83;55.86;101329.81;220180;1256;141309;-70
2023/02/28 11:35:47;;;;;;;9.60;6.70;;;;;;;3.90;55.62;101328.56;217599;1260;139022;-71
2023/02/28 11:41:23;;;;;;;8.00;4.70;;;;;;;3.96;55.70;101326.73;218557;1257;139182;-70
2023/02/28 11:46:46;;;;;;;12.10;8.60;;;;;;;3.85;55.21;101316.74;217578;1257;139095;-67
2023/02/28 11:52:08;;;;;;;12.90;10.00;;;;;;;3.60;55.45;101315.18;218018;1257;139425;-64
2023/02/28 11:57:33;;;;;;;10.80;7.10;;;;;;;3.56;55.51;101310.10;217581;1260;139599;-64
2023/02/28 12:02:56;;;;;;;11.30;9.40;;;;;;;3.62;55.63;101304.09;219439;1257;140155;-67
2023/02/28 12:08:15;;;;;;;7.50;6.30;;;;;;;3.75;55.42;101297.70;217664;1260;139377;-67
2023/02/28 12:13:27;;;;;;;11.00;6.80;;;;;;;4.01;55.88;101290.15;216895;1260;139165;-67
2023/02/28 12:18:47;;;;;;;15.40;9.30;;;;;;;4.29;55.82;101284.13;217151;1257;140072;-65
2023/02/28 12:23:49;;;;;;;17.30;9.10;;;;;;;4.55;55.39;101278.00;217281;1257;139977;-65
2023/02/28 12:29:16;;;;;;;9.80;8.10;;;;;;;4.60;54.88;101271.77;217275;1261;139308;-66
2023/02/28 12:34:26;;;;;;;17.50;8.20;;;;;;;4.65;55.17;101264.06;217400;1263;140309;-66
2023/02/28 12:39:34;;;;;;;15.40;8.60;;;;;;;4.69;54.97;101260.48;217064;1263;140045;-66
2023/02/28 12:45:18;;;;;;;13.20;8.50;;;;;;;4.72;54.82;101252.94;218291;1260;140577;-66
2023/02/28 12:50:23;;;;;;;13.10;8.70;;;;;;;4.76;54.49;101250.42;217143;1260;140152;-66
2023/02/28 12:56:10;;;;;;;11.30;7.90;;;;;;;4.77;54.33;101252.44;217037;1262;139442;-67
2023/02/28 13:01:48;;;;;;;15.10;9.30;;;;;;;4.66;54.09;101250.17;217080;1262;139999;-66
2023/02/28 13:06:57;;;;;;;10.20;8.00;;;;;;;4.57;53.94;101245.40;217512;1260;139921;-67
2023/02/28 13:12:00;;;;;;;12.80;7.60;;;;;;;4.55;54.03;101239.09;217347;1257;139347;-68
2023/02/28 13:17:19;;;;;;;6.40;4.30;;;;;;;4.48;53.96;101237.70;219272;1257;139715;-69
2023/02/28 13:22:44;;;;;;;13.90;8.30;;;;;;;4.54;54.05;101241.00;220356;1257;139361;-69
2023/02/28 13:28:03;;;;;;;12.20;7.80;;;;;;;4.54;53.47;101236.77;220224;1257;139584;-69
2023/02/28 13:33:32;;;;;;;9.50;7.40;;;;;;;4.39;53.30;101231.91;220321;1258;139466;-63
2023/02/28 13:38:41;;;;;;;9.80;7.40;;;;;;;4.35;53.50;101231.20;220070;1257;139225;-68
2023/02/28 13:44:04;;;;;;;11.80;7.10;;;;;;;4.45;53.52;101225.86;220355;1257;140306;-65
2023/02/28 13:49:31;;;;;;;10.60;9.00;;;;;;;4.48;53.85;101220.04;219048;1257;140409;-67
2023/02/28 13:54:56;;;;;;;16.20;10.10;;;;;;;4.45;53.92;101222.13;219285;1257;139772;-66
2023/02/28 14:00:05;;;;;;;10.60;7.00;;;;;;;4.44;54.61;101218.23;217480;1260;141746;-67
2023/02/28 14:05:25;;;;;;;15.40;8.80;;;;;;;4.39;53.85;101211.81;218382;1257;140989;-65
2023/02/28 14:10:35;;;;;;;9.20;7.80;;;;;;;4.29;53.65;101209.95;217449;1261;141690;-67
2023/02/28 14:15:47;;;;;;;10.40;6.80;;;;;;;4.24;53.86;101200.54;218276;1258;138793;-68
2023/02/28 14:21:11;;;;;;;11.90;7.20;;;;;;;4.15;53.74;101205.86;217313;1258;140558;-65
2023/02/28 14:26:50;;;;;;;15.50;10.90;;;;;;;3.93;53.50;101206.56;218490;1260;139429;-66
2023/02/28 14:32:02;;;;;;;10.10;7.90;;;;;;;3.75;54.21;101200.64;217799;1260;139584;-65
2023/02/28 14:37:16;;;;;;;14.20;9.50;;;;;;;3.56;54.60;101195.92;217309;1260;139151;-69
2023/02/28 14:42:43;;;;;;;13.50;9.50;;;;;;;3.39;54.87;101190.02;217807;1257;139383;-66
2023/02/28 14:47:51;;;;;;;13.00;8.70;;;;;;;3.28;55.06;101193.23;218350;1261;139405;-66
2023/02/28 14:52:55;;;;;;;11.30;8.90;;;;;;;3.14;55.13;101193.92;218230;1258;140113;-68
2023/02/28 14:58:06;;;;;;;14.20;9.30;;;;;;;3.07;55.94;101190.44;218716;1260;139113;-64
2023/02/28 15:03:27;;;;;;;13.00;9.90;;;;;;;2.96;56.34;101193.61;219140;1256;139601;-66
2023/02/28 15:08:35;;;;;;;16.80;10.20;;;;;;;2.68;56.70;101194.26;218777;1256;140056;-65
2023/02/28 15:13:46;;;;;;;19.40;10.60;;;;;;;2.44;56.88;101188.46;219477;1257;139911;-62
2023/02/28 15:19:18;;;;;;;22.00;12.10;;;;;;;2.18;57.21;101186.56;218583;1257;139555;-63
2023/02/28 15:24:43;;;;;;;17.90;10.80;;;;;;;2.01;57.51;101188.23;219257;1257;141993;-63
2023/02/28 15:29:50;;;;;;;16.70;11.60;;;;;;;1.91;58.49;101186.21;220109;1257;140742;-65
2023/02/28 15:34:56;;;;;;;21.00;12.20;;;;;;;1.79;58.75;101183.60;220379;1256;139715;-63
2023/02/28 15:40:12;;;;;;;15.70;11.70;;;;;;;1.73;59.12;101180.70;220066;1257;140948;-64
2023/02/28 15:45:38;;;;;;;12.40;9.70;;;;;;;1.67;59.27;101179.54;219785;1256;140023;-67
2023/02/28 15:50:47;;;;;;;18.50;11.50;;;;;;;1.55;59.57;101178.44;218871;1256;140511;-64
2023/02/28 15:56:03;;;;;;;17.30;10.00;;;;;;;1.44;59.97;101182.48;217907;1257;140104;-64
2023/02/28 16:01:23;;;;;;;17.60;13.10;;;;;;;1.30;59.85;101189.20;219264;1256;142706;-63
2023/02/28 16:06:39;;;;;;;23.20;13.40;;;;;;;1.17;60.53;101195.45;219018;1257;141452;-64
2023/02/28 16:11:50;;;;;;;23.20;12.10;;;;;;;1.05;60.75;101193.05;217650;1260;141276;-65
2023/02/28 16:16:55;;;;;;;20.40;12.80;;;;;;;0.90;60.54;101190.84;218475;1256;667091;-63
2023/02/28 16:21:59;;;;;;;22.90;13.20;;;;;;;0.78;60.73;101190.55;217699;1257;140317;-67
2023/02/28 16:27:04;;;;;;;16.60;12.30;;;;;;;0.62;61.22;101192.83;217742;1258;139849;-64
2023/02/28 16:32:07;;;;;;;20.90;12.50;;;;;;;0.39;61.25;101201.14;218653;1257;139538;-65
2023/02/28 16:37:16;;;;;;;20.40;11.10;;;;;;;0.18;61.44;101204.63;217372;1256;140397;-64
2023/02/28 16:42:26;;;;;;;21.00;13.70;;;;;;;-0.02;62.05;101203.53;217621;1256;140641;-61
2023/02/28 16:47:31;;;;;;;22.60;11.50;;;;;;;-0.21;62.33;101211.79;218687;1257;140393;-63
2023/02/28 16:52:36;;;;;;;19.80;11.70;;;;;;;-0.38;62.28;101212.14;217659;1256;139255;-61
2023/02/28 16:57:40;;;;;;;17.80;10.40;;;;;;;-0.49;62.80;101219.17;217345;1257;140288;-64
2023/02/28 17:02:48;;;;;;;19.40;12.90;;;;;;;-0.64;62.99;101222.06;218277;1260;140220;-65
2023/02/28 17:07:51;;;;;;;19.40;10.40;;;;;;;-0.79;63.64;101221.81;217325;1256;139640;-62
2023/02/28 17:12:55;;;;;;;16.20;11.00;;;;;;;-0.87;63.81;101233.54;218733;1256;139615;-61
2023/02/28 17:18:16;;;;;;;25.20;14.50;;;;;;;-0.95;64.17;101236.66;219399;1256;140958;-64
2023/02/28 17:23:19;;;;;;;22.60;13.50;;;;;;;-0.97;64.60;101242.90;220346;1256;140415;-63
2023/02/28 17:28:22;;;;;;;21.40;14.10;;;;;;;-0.99;64.53;101240.98;219929;1257;139756;-65
2023/02/28 17:33:27;;;;;;;23.40;13.30;;;;;;;-1.13;64.64;101231.91;220460;1257;140300;-63
2023/02/28 17:38:30;;;;;;;21.30;14.20;;;;;;;-1.16;65.55;101233.02;220044;1257;139633;-64
2023/02/28 17:43:34;;;;;;;18.10;12.10;;;;;;;-1.16;65.66;101233.75;217801;1258;140264;-62
2023/02/28 17:48:39;;;;;;;26.40;12.90;;;;;;;-1.19;65.63;101234.16;219351;1256;140959;-62
2023/02/28 17:53:44;;;;;;;24.20;15.10;;;;;;;-1.22;66.13;101232.81;218786;1256;140443;-62
2023/02/28 17:58:48;;;;;;;40.60;17.40;;;;;;;-1.25;66.29;101228.37;217616;1257;139665;-63
2023/02/28 18:03:50;;;;;;;33.70;18.40;;;;;;;-1.25;66.63;101220.05;218490;1256;140707;-65
2023/02/28 18:08:54;;;;;;;25.90;16.80;;;;;;;-1.30;66.55;101223.92;218047;1257;140479;-62
2023/02/28 18:13:58;;;;;;;30.40;19.20;;;;;;;-1.40;66.65;101223.31;217168;1257;140859;-67
2023/02/28 18:19:05;;;;;;;32.80;21.90;;;;;;;-1.53;66.60;101221.39;217633;1256;140506;-64
2023/02/28 18:24:10;;;;;;;36.60;20.50;;;;;;;-1.61;66.48;101225.03;218423;1256;139684;-67
2023/02/28 18:29:23;;;;;;;45.20;25.00;;;;;;;-1.71;66.74;101230.99;218331;1259;141509;-65
2023/02/28 18:34:27;;;;;;;63.10;34.80;;;;;;;-1.81;67.17;101233.31;218860;1256;140038;-64
2023/02/28 18:39:30;;;;;;;69.30;38.10;;;;;;;-1.88;67.41;101233.50;218630;1256;139910;-63
2023/02/28 18:44:33;;;;;;;75.00;43.10;;;;;;;-2.03;67.29;101234.64;218927;1256;140708;-62
2023/02/28 18:49:37;;;;;;;68.20;34.90;;;;;;;-2.17;67.64;101232.77;218720;1257;140227;-62
2023/02/28 18:54:41;;;;;;;69.40;32.20;;;;;;;-2.29;67.99;101227.98;219304;1257;140260;-62
2023/02/28 18:59:43;;;;;;;96.40;35.70;;;;;;;-2.25;68.23;101229.23;217562;1256;140072;-62
2023/02/28 19:04:47;;;;;;;111.20;38.60;;;;;;;-2.23;68.33;101222.83;220158;1257;141298;-65
2023/02/28 19:09:49;;;;;;;53.70;22.50;;;;;;;-2.34;68.76;101216.53;220278;1256;141248;-66
2023/02/28 19:14:52;;;;;;;36.10;17.70;;;;;;;-2.42;69.20;101210.32;218118;1256;140687;-65
2023/02/28 19:19:54;;;;;;;26.30;15.30;;;;;;;-2.47;69.30;101205.48;220244;1256;141260;-65
2023/02/28 19:24:57;;;;;;;33.60;20.10;;;;;;;-2.55;69.61;101205.77;220208;1256;140049;-65
2023/02/28 19:29:59;;;;;;;31.90;18.50;;;;;;;-2.58;69.71;101208.17;219357;1257;140139;-62
2023/02/28 19:35:03;;;;;;;32.10;17.10;;;;;;;-2.47;69.95;101202.70;218521;1257;140391;-62
2023/02/28 19:40:12;;;;;;;42.80;21.80;;;;;;;-2.49;69.72;101204.02;217568;1256;139901;-60
2023/02/28 19:45:16;;;;;;;35.40;22.10;;;;;;;-2.52;69.99;101206.23;217975;1259;142651;-61
2023/02/28 19:50:21;;;;;;;32.40;15.80;;;;;;;-2.66;70.12;101209.87;219788;1256;140160;-60
2023/02/28 19:55:25;;;;;;;34.40;18.70;;;;;;;-2.83;70.25;101210.27;218913;1256;140017;-61
2023/02/28 20:00:29;;;;;;;31.00;17.40;;;;;;;-2.97;70.49;101209.55;219319;1256;139732;-64
2023/02/28 20:05:32;;;;;;;32.00;17.30;;;;;;;-3.10;70.53;101203.67;217715;1256;141169;-62
2023/02/28 20:10:36;;;;;;;44.40;24.50;;;;;;;-3.21;70.85;101205.86;218679;1257;141690;-61
2023/02/28 20:15:43;;;;;;;51.00;26.70;;;;;;;-3.19;71.18;101211.52;217404;1260;140632;-61
2023/02/28 20:20:46;;;;;;;49.80;27.20;;;;;;;-3.11;71.65;101206.19;217645;1257;140037;-60
2023/02/28 20:25:50;;;;;;;55.40;29.30;;;;;;;-3.06;71.49;101202.66;217871;1257;159203;-62
2023/02/28 20:30:55;;;;;;;54.00;28.30;;;;;;;-3.07;71.88;101205.70;218647;1256;139728;-61
2023/02/28 20:36:01;;;;;;;40.60;22.50;;;;;;;-3.14;71.56;101202.45;218042;1256;139522;-61
2023/02/28 20:41:05;;;;;;;34.80;20.50;;;;;;;-3.30;71.63;101199.20;217381;1256;139738;-61
2023/02/28 20:46:09;;;;;;;32.50;19.30;;;;;;;-3.39;71.70;101210.47;218083;1260;141595;-62
2023/02/28 20:51:12;;;;;;;56.20;25.10;;;;;;;-3.40;71.77;101212.15;218045;1257;140108;-62
2023/02/28 20:56:17;;;;;;;57.40;32.10;;;;;;;-3.40;71.89;101218.25;218576;1256;140031;-62
2023/02/28 21:01:26;;;;;;;77.80;39.20;;;;;;;-3.52;71.89;101215.09;217674;1256;141018;-62
2023/02/28 21:06:33;;;;;;;61.80;31.60;;;;;;;-3.58;72.40;101223.81;219916;1256;140359;-61
2023/02/28 21:11:38;;;;;;;154.10;61.70;;;;;;;-3.58;72.63;101240.51;220418;1256;141482;-61
2023/02/28 21:16:41;;;;;;;132.40;56.40;;;;;;;-3.58;72.59;101245.41;220233;1256;140267;-64
2023/02/28 21:21:44;;;;;;;135.20;52.80;;;;;;;-3.59;72.45;101248.78;218074;1257;141567;-62
2023/02/28 21:26:47;;;;;;;106.60;48.50;;;;;;;-3.58;72.65;101244.33;220260;1257;141235;-64
2023/02/28 21:31:51;;;;;;;102.40;47.30;;;;;;;-3.64;72.47;101233.34;218427;1259;140344;-61
2023/02/28 21:36:55;;;;;;;92.10;42.10;;;;;;;-3.77;72.67;101227.04;217890;1256;141959;-62
2023/02/28 21:42:02;;;;;;;96.80;46.00;;;;;;;-3.87;72.81;101221.52;218981;1256;139848;-64
2023/02/28 21:47:07;;;;;;;86.70;36.50;;;;;;;-3.95;73.06;101214.14;218005;1257;140126;-62
2023/02/28 21:52:10;;;;;;;94.20;43.60;;;;;;;-4.00;73.50;101208.56;217530;1257;139898;-64
2023/02/28 21:57:14;;;;;;;83.80;38.80;;;;;;;-3.93;73.94;101210.13;218216;1257;140518;-64
2023/02/28 22:02:21;;;;;;;81.00;40.30;;;;;;;-3.86;73.87;101216.60;218052;1257;140110;-62
2023/02/28 22:07:23;;;;;;;81.90;39.30;;;;;;;-3.85;73.81;101221.20;218274;1258;140310;-60
2023/02/28 22:12:29;;;;;;;88.90;42.30;;;;;;;-3.89;73.85;101220.63;217989;1257;140214;-66
2023/02/28 22:17:33;;;;;;;94.70;42.30;;;;;;;-3.97;73.81;101232.98;217513;1260;140769;-60
2023/02/28 22:22:36;;;;;;;90.00;44.40;;;;;;;-4.07;73.84;101233.00;218056;1259;140061;-62
2023/02/28 22:27:40;;;;;;;104.30;41.90;;;;;;;-4.12;73.96;101237.31;217577;1256;140232;-61
2023/02/28 22:32:44;;;;;;;95.00;50.00;;;;;;;-4.16;73.75;101230.14;218437;1256;140234;-63
2023/02/28 22:37:47;;;;;;;102.00;47.20;;;;;;;-4.20;73.89;101235.77;217631;1256;139814;-62
2023/02/28 22:42:50;;;;;;;103.70;49.40;;;;;;;-4.30;73.97;101244.28;217605;1256;139770;-62
2023/02/28 22:47:53;;;;;;;102.40;47.90;;;;;;;-4.34;74.19;101244.52;218513;1256;139964;-60
2023/02/28 22:52:57;;;;;;;98.10;47.20;;;;;;;-4.46;74.08;101248.42;217657;1259;140986;-61
2023/02/28 22:58:01;;;;;;;120.70;50.40;;;;;;;-4.52;74.10;101248.34;218686;1256;139639;-62
2023/02/28 23:03:32;;;;;;;131.60;55.90;;;;;;;-4.52;74.15;101242.95;220435;1256;140756;-60